Portada
METAR-TAF:

METAR-TAF

Aeroports :

Pohnpei, Micronèsia

latitud: 06-59N, longitud: 158-12E, altitud: 2 m

Observació

L'informe es va fer fa 50 minuts, a les 01:50 UTC
Vent 5 kt del Oest
Temperatura 31°C
Humitat 75%
Pressió 1011 hPa
Visibilitat: 24.1 km
Núvols disperses a una alçada de 1800 ft, Cumulus congestus.
Cel ennuvolat a una alçada de 13000 ft
Cel cobert a una alçada de 30000 ft

METAR: PTPN 230150Z 27005KT 15SM SCT018TCU BKN130 OVC300 31/26 A2984 RMK TCU E-SE

Hora: 13:40 (02:40 UTC)

Pronòstic

L'informe es va fer fa 3 hores i 5 minuts, a les 23:35 UTC
Pronòstic vàlid del 23 a les 00 UTC al 23 a les 24 UTC
Vent 8 kt del Sud-Oest
Visibilitat: 10 km
Núvols disperses a una alçada de 1800 ft
Núvols disperses a una alçada de 5000 ft
Cel ennuvolat a una alçada de 13000 ft
xàfecs en les proximitats

TAF: PTPN 222335Z 2300/2324 22008KT P6SM VCSH SCT018 SCT050 BKN130

Observacions i pronòstics meteorològics de més de 4000 aeroports (METAR i TAF).

Les estacions disponibles són els punts grocs i vermells al mapa.

Posi el ratolí al punt desitjat per veure el nom de l'estació.

Feu clic per veure les observacions i els pronòstics meteorològics.

Per canviar el mapa: feu clic els botons verds amb una creu de color negre per apropar; al botó verd amb un guió per allunyar la imatge; o en les fletxes verdes per a mapes adjacents.


METAR-TAF: